createdAt,value
2018-04-29T00:00:43.141Z,0
2018-04-29T00:01:42.884Z,0
2018-04-29T00:02:42.884Z,0
2018-04-29T00:03:42.874Z,0
2018-04-29T00:04:43.120Z,0
2018-04-29T00:05:43.114Z,0
2018-04-29T00:06:43.121Z,0
2018-04-29T00:07:42.848Z,0
2018-04-29T00:08:42.601Z,0
2018-04-29T00:09:43.097Z,0
2018-04-29T00:10:42.579Z,0
2018-04-29T00:11:43.086Z,0
2018-04-29T00:12:43.070Z,0
2018-04-29T00:13:43.079Z,0
2018-04-29T00:14:42.818Z,0
2018-04-29T00:15:43.071Z,0
2018-04-29T00:16:42.808Z,0
2018-04-29T00:17:42.550Z,0
2018-04-29T00:18:42.813Z,0
2018-04-29T00:19:43.034Z,0
2018-04-29T00:20:43.029Z,0
2018-04-29T00:21:43.028Z,0
2018-04-29T00:22:43.041Z,0
2018-04-29T00:23:43.012Z,0
2018-04-29T00:24:42.758Z,0
2018-04-29T00:25:43.020Z,0
2018-04-29T00:26:42.750Z,0
2018-04-29T00:27:42.498Z,0
2018-04-29T00:28:42.986Z,0
2018-04-29T00:29:42.980Z,0
2018-04-29T00:30:42.726Z,0
2018-04-29T00:31:42.974Z,0
2018-04-29T00:32:42.459Z,0
2018-04-29T00:33:43.028Z,0
2018-04-29T00:34:42.715Z,0
2018-04-29T00:35:42.697Z,0
2018-04-29T00:36:42.696Z,0
2018-04-29T00:37:42.937Z,0
2018-04-29T00:38:43.423Z,0
2018-04-29T00:39:42.923Z,0
2018-04-29T00:40:42.669Z,0
2018-04-29T00:41:42.660Z,0
2018-04-29T00:42:43.003Z,0
2018-04-29T00:43:42.904Z,0
2018-04-29T00:44:42.672Z,0
2018-04-29T00:45:42.911Z,0
2018-04-29T00:46:42.900Z,0
2018-04-29T00:47:42.888Z,0
2018-04-29T00:48:42.624Z,0
2018-04-29T00:49:42.448Z,0
2018-04-29T00:50:42.865Z,0
2018-04-29T00:51:42.856Z,0
2018-04-29T00:52:42.871Z,0
2018-04-29T00:53:42.600Z,0
2018-04-29T00:54:42.867Z,0
2018-04-29T00:55:42.849Z,0
2018-04-29T00:56:42.338Z,0
2018-04-29T00:57:42.577Z,0
2018-04-29T00:58:42.821Z,0
2018-04-29T00:59:42.820Z,0
2018-04-29T01:00:42.553Z,0
2018-04-29T01:01:42.547Z,0
2018-04-29T01:02:42.805Z,0
2018-04-29T01:03:42.791Z,0
2018-04-29T01:04:42.785Z,0
2018-04-29T01:05:42.519Z,0
2018-04-29T01:06:42.773Z,0
2018-04-29T01:07:42.511Z,0
2018-04-29T01:08:42.504Z,0
2018-04-29T01:09:42.508Z,0
2018-04-29T01:10:42.749Z,0
2018-04-29T01:11:43.150Z,0
2018-04-29T01:12:41.984Z,0
2018-04-29T01:13:42.738Z,0
2018-04-29T01:14:42.725Z,0
2018-04-29T01:15:42.473Z,0
2018-04-29T01:16:42.708Z,0
2018-04-29T01:17:42.727Z,0
2018-04-29T01:18:42.760Z,0
2018-04-29T01:19:42.434Z,0
2018-04-29T01:20:42.687Z,0
2018-04-29T01:21:42.442Z,0
2018-04-29T01:22:42.175Z,0
2018-04-29T01:23:42.665Z,0
2018-04-29T01:24:42.658Z,0
2018-04-29T01:25:42.407Z,0
2018-04-29T01:26:42.641Z,0
2018-04-29T01:27:42.136Z,0
2018-04-29T01:28:42.375Z,0
2018-04-29T01:29:42.373Z,0
2018-04-29T01:30:42.619Z,0
2018-04-29T01:31:42.608Z,0
2018-04-29T01:32:42.612Z,0
2018-04-29T01:33:42.593Z,0
2018-04-29T01:34:42.596Z,0
2018-04-29T01:35:42.595Z,0
2018-04-29T01:36:42.575Z,0
2018-04-29T01:37:42.586Z,0
2018-04-29T01:38:42.560Z,0
2018-04-29T01:39:42.564Z,0
2018-04-29T01:40:42.555Z,0
2018-04-29T01:41:42.558Z,0
2018-04-29T01:42:42.534Z,0
2018-04-29T01:43:42.531Z,0
2018-04-29T01:44:42.521Z,0
2018-04-29T01:45:42.269Z,0
2018-04-29T01:46:42.513Z,0
2018-04-29T01:47:42.252Z,0
2018-04-29T01:48:41.989Z,0
2018-04-29T01:49:41.994Z,0
2018-04-29T01:50:41.978Z,0
2018-04-29T01:51:42.155Z,0
2018-04-29T01:52:42.478Z,0
2018-04-29T01:53:42.219Z,0
2018-04-29T01:54:42.456Z,0
2018-04-29T01:55:42.195Z,0
2018-04-29T01:56:42.188Z,0
2018-04-29T01:57:42.448Z,0
2018-04-29T01:58:42.434Z,0
2018-04-29T01:59:42.175Z,0
2018-04-29T02:00:42.417Z,0
2018-04-29T02:01:42.158Z,0
2018-04-29T02:02:42.402Z,0
2018-04-29T02:03:42.454Z,0
2018-04-29T02:04:42.387Z,0
2018-04-29T02:05:42.132Z,0
2018-04-29T02:06:42.119Z,0
2018-04-29T02:07:42.367Z,0
2018-04-29T02:08:42.372Z,0
2018-04-29T02:09:42.356Z,0
2018-04-29T02:10:42.345Z,0
2018-04-29T02:11:42.341Z,0
2018-04-29T02:12:42.106Z,0
2018-04-29T02:13:42.087Z,0
2018-04-29T02:14:41.824Z,0
2018-04-29T02:15:42.314Z,0
2018-04-29T02:16:42.059Z,0
2018-04-29T02:17:42.298Z,0
2018-04-29T02:18:42.320Z,0
2018-04-29T02:19:42.034Z,0
2018-04-29T02:20:42.029Z,0
2018-04-29T02:21:42.027Z,0
2018-04-29T02:22:42.019Z,0
2018-04-29T02:23:42.252Z,0
2018-04-29T02:24:41.741Z,0
2018-04-29T02:25:42.000Z,0
2018-04-29T02:26:42.240Z,0
2018-04-29T02:27:41.980Z,0
2018-04-29T02:28:42.226Z,0
2018-04-29T02:29:42.226Z,0
2018-04-29T02:30:42.225Z,0
2018-04-29T02:31:42.207Z,0
2018-04-29T02:32:41.961Z,0
2018-04-29T02:33:42.218Z,0
2018-04-29T02:34:42.191Z,0
2018-04-29T02:35:42.190Z,0
2018-04-29T02:36:42.182Z,0
2018-04-29T02:37:41.914Z,0
2018-04-29T02:38:42.164Z,0
2018-04-29T02:39:41.643Z,0
2018-04-29T02:40:42.160Z,0
2018-04-29T02:41:41.377Z,0
2018-04-29T02:42:41.919Z,0
2018-04-29T02:43:41.871Z,0
2018-04-29T02:44:41.878Z,0
2018-04-29T02:45:41.345Z,0
2018-04-29T02:46:41.852Z,0
2018-04-29T02:47:42.104Z,0
2018-04-29T02:48:42.184Z,0
2018-04-29T02:49:42.079Z,0
2018-04-29T02:50:42.088Z,0
2018-04-29T02:51:42.085Z,0
2018-04-29T02:52:42.078Z,0
2018-04-29T02:53:42.058Z,0
2018-04-29T02:54:42.083Z,0
2018-04-29T02:55:42.048Z,0
2018-04-29T02:56:41.778Z,0
2018-04-29T02:57:42.027Z,0
2018-04-29T02:58:41.761Z,0
2018-04-29T02:59:42.013Z,0
2018-04-29T03:00:42.011Z,0
2018-04-29T03:01:41.737Z,0
2018-04-29T03:02:41.988Z,0
2018-04-29T03:03:41.974Z,0
2018-04-29T03:04:41.976Z,0
2018-04-29T03:05:41.454Z,0
2018-04-29T03:06:41.969Z,0
2018-04-29T03:07:41.953Z,0
2018-04-29T03:08:41.688Z,0
2018-04-29T03:09:41.689Z,0
2018-04-29T03:10:41.950Z,0
2018-04-29T03:11:41.918Z,0
2018-04-29T03:12:41.937Z,0
2018-04-29T03:13:41.929Z,0
2018-04-29T03:14:41.657Z,0
2018-04-29T03:15:41.390Z,0
2018-04-29T03:16:41.632Z,0
2018-04-29T03:17:41.627Z,0
2018-04-29T03:18:41.617Z,0
2018-04-29T03:19:41.362Z,0
2018-04-29T03:20:41.849Z,0
2018-04-29T03:21:41.849Z,0
2018-04-29T03:22:41.849Z,0
2018-04-29T03:23:41.827Z,0
2018-04-29T03:24:41.828Z,0
2018-04-29T03:25:41.820Z,0
2018-04-29T03:26:41.303Z,0
2018-04-29T03:27:41.809Z,0
2018-04-29T03:28:41.803Z,0
2018-04-29T03:29:41.789Z,0
2018-04-29T03:30:41.538Z,0
2018-04-29T03:31:41.528Z,5
2018-04-29T03:32:41.761Z,5
2018-04-29T03:33:41.504Z,5
2018-04-29T03:34:41.757Z,5
2018-04-29T03:35:41.767Z,5
2018-04-29T03:36:41.742Z,5
2018-04-29T03:37:41.727Z,5
2018-04-29T03:38:41.473Z,5
2018-04-29T03:39:41.558Z,5
2018-04-29T03:40:41.458Z,10
2018-04-29T03:41:41.196Z,10
2018-04-29T03:42:41.702Z,10
2018-04-29T03:43:41.684Z,15
2018-04-29T03:44:41.695Z,15
2018-04-29T03:45:41.671Z,15
2018-04-29T03:46:41.406Z,15
2018-04-29T03:47:41.651Z,15
2018-04-29T03:48:41.677Z,20
2018-04-29T03:49:41.398Z,20
2018-04-29T03:50:41.151Z,20
2018-04-29T03:51:41.635Z,25
2018-04-29T03:52:41.617Z,25
2018-04-29T03:53:41.614Z,25
2018-04-29T03:54:41.606Z,30
2018-04-29T03:55:41.605Z,30
2018-04-29T03:56:41.343Z,35
2018-04-29T03:57:41.616Z,35
2018-04-29T03:58:40.878Z,35
2018-04-29T03:59:41.103Z,40
2018-04-29T04:00:41.569Z,40
2018-04-29T04:01:51.280Z,45
2018-04-29T04:02:41.885Z,45
2018-04-29T04:03:41.285Z,45
2018-04-29T04:04:41.378Z,45
2018-04-29T04:05:41.272Z,50
2018-04-29T04:06:41.265Z,50
2018-04-29T04:07:41.270Z,55
2018-04-29T04:08:41.255Z,60
2018-04-29T04:09:41.614Z,65
2018-04-29T04:10:41.487Z,65
2018-04-29T04:11:41.534Z,70
2018-04-29T04:12:41.221Z,70
2018-04-29T04:13:41.219Z,75
2018-04-29T04:14:41.468Z,75
2018-04-29T04:15:41.453Z,80
2018-04-29T04:16:41.449Z,80
2018-04-29T04:17:41.443Z,85
2018-04-29T04:18:41.431Z,95
2018-04-29T04:19:41.433Z,100
2018-04-29T04:20:41.423Z,100
2018-04-29T04:21:41.432Z,105
2018-04-29T04:22:41.417Z,105
2018-04-29T04:23:41.467Z,110
2018-04-29T04:24:41.398Z,110
2018-04-29T04:25:41.147Z,110
2018-04-29T04:26:41.129Z,115
2018-04-29T04:27:41.374Z,125
2018-04-29T04:28:40.859Z,130
2018-04-29T04:29:40.868Z,135
2018-04-29T04:30:40.856Z,140
2018-04-29T04:31:40.842Z,140
2018-04-29T04:32:41.343Z,145
2018-04-29T04:33:41.344Z,150
2018-04-29T04:34:41.346Z,155
2018-04-29T04:35:41.338Z,165
2018-04-29T04:36:41.062Z,175
2018-04-29T04:37:40.806Z,180
2018-04-29T04:38:40.797Z,185
2018-04-29T04:39:41.297Z,190
2018-04-29T04:40:41.289Z,200
2018-04-29T04:41:41.284Z,200
2018-04-29T04:42:41.022Z,205
2018-04-29T04:43:41.280Z,210
2018-04-29T04:44:41.267Z,215
2018-04-29T04:45:40.751Z,220
2018-04-29T04:46:41.257Z,220
2018-04-29T04:47:40.998Z,215
2018-04-29T04:48:41.243Z,205
2018-04-29T04:49:41.235Z,210
2018-04-29T04:50:41.241Z,205
2018-04-29T04:51:40.972Z,200
2018-04-29T04:52:41.230Z,195
2018-04-29T04:53:40.966Z,205
2018-04-29T04:54:41.209Z,215
2018-04-29T04:55:41.221Z,220
2018-04-29T04:56:40.947Z,235
2018-04-29T04:57:40.962Z,235
2018-04-29T04:58:41.196Z,240
2018-04-29T04:59:41.196Z,255
2018-04-29T05:00:41.181Z,275
2018-04-29T05:01:41.185Z,280
2018-04-29T05:02:41.180Z,270
2018-04-29T05:03:41.173Z,255
2018-04-29T05:04:41.174Z,245
2018-04-29T05:05:41.177Z,260
2018-04-29T05:06:41.171Z,280
2018-04-29T05:07:41.158Z,310
2018-04-29T05:08:40.909Z,310
2018-04-29T05:09:40.902Z,320
2018-04-29T05:10:40.641Z,335
2018-04-29T05:11:41.143Z,330
2018-04-29T05:12:40.888Z,350
2018-04-29T05:13:41.005Z,345
2018-04-29T05:14:41.131Z,335
2018-04-29T05:15:41.136Z,320
2018-04-29T05:16:41.136Z,430
2018-04-29T05:17:41.122Z,325
2018-04-29T05:18:40.869Z,245
2018-04-29T05:19:40.865Z,290
2018-04-29T05:20:40.867Z,435
2018-04-29T05:21:40.617Z,425
2018-04-29T05:22:40.859Z,355
2018-04-29T05:23:41.121Z,390
2018-04-29T05:24:40.863Z,390
2018-04-29T05:25:40.602Z,485
2018-04-29T05:26:40.601Z,455
2018-04-29T05:27:41.105Z,490
2018-04-29T05:28:40.855Z,535
2018-04-29T05:29:41.102Z,530
2018-04-29T05:30:40.941Z,545
2018-04-29T05:31:40.344Z,550
2018-04-29T05:32:41.113Z,500
2018-04-29T05:33:40.855Z,435
2018-04-29T05:34:40.851Z,495
2018-04-29T05:35:41.102Z,450
2018-04-29T05:36:41.109Z,530
2018-04-29T05:37:41.115Z,535
2018-04-29T05:38:41.115Z,555
2018-04-29T05:39:40.867Z,620
2018-04-29T05:40:40.863Z,635
2018-04-29T05:41:40.874Z,660
2018-04-29T05:42:40.933Z,640
2018-04-29T05:43:41.126Z,695
2018-04-29T05:44:41.122Z,660
2018-04-29T05:45:40.890Z,805
2018-04-29T05:46:41.131Z,835
2018-04-29T05:47:41.151Z,850
2018-04-29T05:48:41.141Z,775
2018-04-29T05:49:41.142Z,785
2018-04-29T05:50:41.141Z,905
2018-04-29T05:51:40.642Z,895
2018-04-29T05:52:40.906Z,820
2018-04-29T05:53:41.211Z,845
2018-04-29T05:54:41.170Z,745
2018-04-29T05:55:41.169Z,710
2018-04-29T05:56:41.181Z,670
2018-04-29T05:57:40.928Z,585
2018-04-29T05:58:40.939Z,560
2018-04-29T05:59:40.954Z,450
2018-04-29T06:00:41.221Z,485
2018-04-29T06:01:40.956Z,490
2018-04-29T06:02:40.714Z,460
2018-04-29T06:03:40.717Z,495
2018-04-29T06:04:41.237Z,475
2018-04-29T06:05:41.239Z,500
2018-04-29T06:06:41.498Z,530
2018-04-29T06:07:41.245Z,585
2018-04-29T06:08:41.267Z,515
2018-04-29T06:09:41.268Z,825
2018-04-29T06:10:41.281Z,710
2018-04-29T06:11:41.271Z,935
2018-04-29T06:12:41.280Z,985
2018-04-29T06:13:41.307Z,770
2018-04-29T06:14:41.292Z,740
2018-04-29T06:15:41.326Z,640
2018-04-29T06:16:40.800Z,835
2018-04-29T06:17:41.317Z,1055
2018-04-29T06:18:41.067Z,930
2018-04-29T06:19:40.817Z,825
2018-04-29T06:20:41.285Z,800
2018-04-29T06:21:41.339Z,1080
2018-04-29T06:22:41.344Z,1165
2018-04-29T06:23:41.377Z,1035
2018-04-29T06:24:41.369Z,875
2018-04-29T06:25:41.176Z,810
2018-04-29T06:26:41.373Z,905
2018-04-29T06:27:41.386Z,1115
2018-04-29T06:28:41.387Z,1075
2018-04-29T06:29:41.402Z,1145
2018-04-29T06:30:41.415Z,840
2018-04-29T06:31:41.162Z,905
2018-04-29T06:32:40.920Z,1005
2018-04-29T06:33:41.265Z,1070
2018-04-29T06:34:41.434Z,925
2018-04-29T06:35:41.449Z,1155
2018-04-29T06:36:41.198Z,1190
2018-04-29T06:37:41.462Z,1120
2018-04-29T06:38:41.475Z,1130
2018-04-29T06:39:41.481Z,1170
2018-04-29T06:40:41.232Z,1145
2018-04-29T06:41:41.494Z,1305
2018-04-29T06:42:41.260Z,1170
2018-04-29T06:43:41.258Z,1085
2018-04-29T06:44:41.008Z,1225
2018-04-29T06:45:41.290Z,1080
2018-04-29T06:46:41.291Z,925
2018-04-29T06:47:41.291Z,770
2018-04-29T06:48:41.550Z,700
2018-04-29T06:49:41.314Z,600
2018-04-29T06:50:41.602Z,735
2018-04-29T06:51:41.341Z,830
2018-04-29T06:52:41.343Z,690
2018-04-29T06:53:41.876Z,905
2018-04-29T06:54:41.358Z,970
2018-04-29T06:55:41.401Z,835
2018-04-29T06:56:41.637Z,730
2018-04-29T06:57:41.635Z,665
2018-04-29T06:58:41.646Z,585
2018-04-29T06:59:41.414Z,565
2018-04-29T07:00:41.440Z,600
2018-04-29T07:01:41.688Z,625
2018-04-29T07:02:41.678Z,905
2018-04-29T07:03:41.700Z,1170
2018-04-29T07:04:41.705Z,1450
2018-04-29T07:05:41.726Z,1600
2018-04-29T07:06:41.716Z,1385
2018-04-29T07:07:41.721Z,1300
2018-04-29T07:08:41.487Z,1310
2018-04-29T07:09:41.494Z,1340
2018-04-29T07:10:41.752Z,1205
2018-04-29T07:11:41.764Z,1110
2018-04-29T07:12:41.771Z,1175
2018-04-29T07:13:41.784Z,1095
2018-04-29T07:14:41.535Z,1045
2018-04-29T07:15:41.816Z,725
2018-04-29T07:16:41.552Z,610
2018-04-29T07:17:41.830Z,655
2018-04-29T07:18:41.333Z,770
2018-04-29T07:19:41.583Z,775
2018-04-29T07:20:41.851Z,720
2018-04-29T07:21:41.850Z,775
2018-04-29T07:22:41.607Z,830
2018-04-29T07:23:41.888Z,1060
2018-04-29T07:24:41.639Z,860
2018-04-29T07:25:41.637Z,805
2018-04-29T07:26:41.667Z,830
2018-04-29T07:27:41.654Z,730
2018-04-29T07:28:41.796Z,770
2018-04-29T07:29:41.931Z,1065
2018-04-29T07:30:41.936Z,780
2018-04-29T07:31:41.700Z,870
2018-04-29T07:32:41.947Z,895
2018-04-29T07:33:41.717Z,1440
2018-04-29T07:34:41.717Z,1395
2018-04-29T07:35:41.723Z,1720
2018-04-29T07:36:41.825Z,830
2018-04-29T07:37:41.747Z,770
2018-04-29T07:38:41.507Z,685
2018-04-29T07:39:42.017Z,640
2018-04-29T07:40:42.019Z,625
2018-04-29T07:41:42.031Z,640
2018-04-29T07:42:42.034Z,630
2018-04-29T07:43:42.049Z,620
2018-04-29T07:44:41.626Z,620
2018-04-29T07:45:42.058Z,600
2018-04-29T07:46:42.146Z,605
2018-04-29T07:47:42.077Z,655
2018-04-29T07:48:42.084Z,610
2018-04-29T07:49:42.093Z,570
2018-04-29T07:50:41.852Z,590
2018-04-29T07:51:41.849Z,720
2018-04-29T07:52:42.504Z,1105
2018-04-29T07:53:42.144Z,1270
2018-04-29T07:54:41.621Z,2275
2018-04-29T07:55:42.146Z,2050
2018-04-29T07:56:41.895Z,870
2018-04-29T07:57:42.150Z,820
2018-04-29T07:58:42.152Z,825
2018-04-29T07:59:42.182Z,910
2018-04-29T08:00:42.128Z,830
2018-04-29T08:01:41.927Z,665
2018-04-29T08:02:41.958Z,625
2018-04-29T08:03:41.952Z,800
2018-04-29T08:04:41.975Z,1005
2018-04-29T08:05:41.967Z,805
2018-04-29T08:06:42.280Z,890
2018-04-29T08:07:42.233Z,815
2018-04-29T08:08:41.983Z,845
2018-04-29T08:09:42.235Z,1015
2018-04-29T08:10:42.263Z,1165
2018-04-29T08:11:42.013Z,1265
2018-04-29T08:12:42.005Z,1685
2018-04-29T08:13:42.011Z,1830
2018-04-29T08:14:42.295Z,1500
2018-04-29T08:15:42.375Z,1515
2018-04-29T08:16:42.047Z,1220
2018-04-29T08:17:42.293Z,880
2018-04-29T08:18:42.308Z,770
2018-04-29T08:19:42.067Z,735
2018-04-29T08:20:42.068Z,770
2018-04-29T08:21:42.080Z,775
2018-04-29T08:22:42.571Z,745
2018-04-29T08:23:42.339Z,710
2018-04-29T08:24:42.350Z,685
2018-04-29T08:25:42.358Z,745
2018-04-29T08:26:42.454Z,940
2018-04-29T08:27:42.370Z,1130
2018-04-29T08:28:42.125Z,830
2018-04-29T08:29:42.126Z,785
2018-04-29T08:30:42.131Z,945
2018-04-29T08:31:42.401Z,1305
2018-04-29T08:32:42.408Z,785
2018-04-29T08:33:42.415Z,725
2018-04-29T08:34:42.175Z,675
2018-04-29T08:35:42.418Z,630
2018-04-29T08:36:42.183Z,570
2018-04-29T08:37:42.450Z,485
2018-04-29T08:38:42.201Z,420
2018-04-29T08:39:41.689Z,385
2018-04-29T08:40:42.472Z,355
2018-04-29T08:41:42.475Z,355
2018-04-29T08:42:42.475Z,395
2018-04-29T08:43:42.231Z,440
2018-04-29T08:44:42.223Z,495
2018-04-29T08:45:42.228Z,555
2018-04-29T08:46:42.506Z,625
2018-04-29T08:47:42.240Z,695
2018-04-29T08:48:42.655Z,760
2018-04-29T08:49:42.651Z,785
2018-04-29T08:50:42.264Z,795
2018-04-29T08:51:42.269Z,730
2018-04-29T08:52:42.821Z,625
2018-04-29T08:53:42.345Z,545
2018-04-29T08:54:42.026Z,485
2018-04-29T08:55:42.537Z,455
2018-04-29T08:56:42.340Z,435
2018-04-29T08:57:42.548Z,420
2018-04-29T08:58:42.548Z,420
2018-04-29T08:59:42.562Z,410
2018-04-29T09:00:42.573Z,400
2018-04-29T09:01:42.531Z,385
2018-04-29T09:02:42.062Z,370
2018-04-29T09:03:42.923Z,365
2018-04-29T09:04:42.593Z,360
2018-04-29T09:05:42.810Z,385
2018-04-29T09:06:42.669Z,370
2018-04-29T09:07:42.600Z,355
2018-04-29T09:08:42.612Z,345
2018-04-29T09:09:42.616Z,340
2018-04-29T09:10:42.339Z,335
2018-04-29T09:11:42.599Z,330
2018-04-29T09:12:42.601Z,330
2018-04-29T09:13:42.599Z,325
2018-04-29T09:14:42.604Z,320
2018-04-29T09:15:42.609Z,315
2018-04-29T09:16:42.626Z,315
2018-04-29T09:17:42.653Z,315
2018-04-29T09:18:42.608Z,305
2018-04-29T09:19:42.614Z,300
2018-04-29T09:20:42.611Z,295
2018-04-29T09:21:42.608Z,290
2018-04-29T09:22:42.614Z,285
2018-04-29T09:23:42.371Z,280
2018-04-29T09:24:42.379Z,275
2018-04-29T09:25:42.372Z,275
2018-04-29T09:26:42.385Z,270
2018-04-29T09:27:42.617Z,270
2018-04-29T09:28:42.622Z,270
2018-04-29T09:29:42.630Z,270
2018-04-29T09:30:42.833Z,270
2018-04-29T09:31:42.711Z,265
2018-04-29T09:32:42.646Z,265
2018-04-29T09:33:42.626Z,265
2018-04-29T09:34:42.622Z,265
2018-04-29T09:35:42.644Z,260
2018-04-29T09:36:42.621Z,260
2018-04-29T09:37:42.635Z,260
2018-04-29T09:38:42.644Z,260
2018-04-29T09:39:42.370Z,260
2018-04-29T09:40:41.882Z,260
2018-04-29T09:41:42.622Z,260
2018-04-29T09:42:42.383Z,260
2018-04-29T09:43:42.674Z,260
2018-04-29T09:44:42.124Z,260
2018-04-29T09:45:42.643Z,260
2018-04-29T09:46:42.648Z,260
2018-04-29T09:47:42.628Z,260
2018-04-29T09:48:42.967Z,260
2018-04-29T09:49:42.648Z,255
2018-04-29T09:50:42.637Z,255
2018-04-29T09:51:42.382Z,255
2018-04-29T09:52:42.376Z,255
2018-04-29T09:53:42.630Z,255
2018-04-29T09:54:42.124Z,255
2018-04-29T09:55:42.627Z,255
2018-04-29T09:56:42.662Z,255
2018-04-29T09:57:42.376Z,250
2018-04-29T09:58:42.650Z,250
2018-04-29T09:59:42.383Z,250
2018-04-29T10:00:42.154Z,250
2018-04-29T10:01:42.642Z,250
2018-04-29T10:02:42.639Z,250
2018-04-29T10:03:42.376Z,250
2018-04-29T10:04:42.388Z,250
2018-04-29T10:05:42.371Z,250
2018-04-29T10:06:42.381Z,250
2018-04-29T10:07:42.120Z,245
2018-04-29T10:08:42.624Z,245
2018-04-29T10:09:42.298Z,245
2018-04-29T10:10:42.370Z,245
2018-04-29T10:11:41.868Z,245
2018-04-29T10:12:42.631Z,245
2018-04-29T10:13:41.864Z,245
2018-04-29T10:14:42.381Z,245
2018-04-29T10:15:42.629Z,245
2018-04-29T10:16:42.123Z,245
2018-04-29T10:17:42.641Z,245
2018-04-29T10:18:42.642Z,245
2018-04-29T10:19:42.374Z,245
2018-04-29T10:20:42.379Z,245
2018-04-29T10:21:42.398Z,245
2018-04-29T10:22:42.143Z,245
2018-04-29T10:23:42.631Z,245
2018-04-29T10:24:42.672Z,250
2018-04-29T10:25:42.375Z,245
2018-04-29T10:26:42.391Z,250
2018-04-29T10:27:42.388Z,245
2018-04-29T10:28:42.124Z,245
2018-04-29T10:29:42.633Z,240
2018-04-29T10:30:42.379Z,240
2018-04-29T10:31:42.377Z,240
2018-04-29T10:32:42.492Z,245
2018-04-29T10:33:42.651Z,245
2018-04-29T10:34:42.371Z,245
2018-04-29T10:35:42.376Z,245
2018-04-29T10:36:42.620Z,245
2018-04-29T10:37:42.709Z,245
2018-04-29T10:38:42.628Z,240
2018-04-29T10:39:42.622Z,240
2018-04-29T10:40:42.371Z,240
2018-04-29T10:41:42.635Z,235
2018-04-29T10:42:42.631Z,235
2018-04-29T10:43:42.374Z,235
2018-04-29T10:44:42.623Z,235
2018-04-29T10:45:42.373Z,230
2018-04-29T10:46:42.374Z,230
2018-04-29T10:47:42.647Z,230
2018-04-29T10:48:42.630Z,230
2018-04-29T10:49:42.132Z,230
2018-04-29T10:50:42.369Z,230
2018-04-29T10:51:42.452Z,230
2018-04-29T10:52:42.522Z,235
2018-04-29T10:53:42.617Z,235
2018-04-29T10:54:42.628Z,235
2018-04-29T10:55:42.398Z,235
2018-04-29T10:56:42.977Z,235
2018-04-29T10:57:42.375Z,235
2018-04-29T10:58:42.748Z,235
2018-04-29T10:59:42.640Z,235
2018-04-29T11:00:42.631Z,235
2018-04-29T11:01:42.628Z,235
2018-04-29T11:02:42.620Z,235
2018-04-29T11:03:42.707Z,235
2018-04-29T11:04:42.396Z,235
2018-04-29T11:05:42.634Z,235
2018-04-29T11:06:42.637Z,235
2018-04-29T11:07:42.636Z,235
2018-04-29T11:08:42.382Z,230
2018-04-29T11:09:42.375Z,230
2018-04-29T11:10:42.375Z,230
2018-04-29T11:11:42.484Z,230
2018-04-29T11:12:42.396Z,230
2018-04-29T11:13:42.633Z,230
2018-04-29T11:14:42.649Z,230
2018-04-29T11:15:42.629Z,230
2018-04-29T11:16:42.657Z,230
2018-04-29T11:17:42.660Z,225
2018-04-29T11:18:42.625Z,225
2018-04-29T11:19:42.645Z,225
2018-04-29T11:20:42.136Z,225
2018-04-29T11:21:42.635Z,230
2018-04-29T11:22:42.636Z,230
2018-04-29T11:23:42.628Z,225
2018-04-29T11:24:42.398Z,225
2018-04-29T11:25:42.465Z,220
2018-04-29T11:26:42.426Z,225
2018-04-29T11:27:42.643Z,225
2018-04-29T11:28:42.753Z,225
2018-04-29T11:29:42.380Z,225
2018-04-29T11:30:42.663Z,225
2018-04-29T11:31:42.636Z,225
2018-04-29T11:32:42.388Z,225
2018-04-29T11:33:42.646Z,225
2018-04-29T11:34:42.650Z,225
2018-04-29T11:35:42.645Z,225
2018-04-29T11:36:42.387Z,225
2018-04-29T11:37:42.151Z,225
2018-04-29T11:38:42.138Z,225
2018-04-29T11:39:42.389Z,225
2018-04-29T11:40:42.994Z,225
2018-04-29T11:41:42.642Z,225
2018-04-29T11:42:42.655Z,220
2018-04-29T11:43:42.641Z,220
2018-04-29T11:44:42.641Z,220
2018-04-29T11:45:42.144Z,220
2018-04-29T11:46:42.654Z,220
2018-04-29T11:47:42.392Z,220
2018-04-29T11:48:42.390Z,220
2018-04-29T11:49:42.648Z,220
2018-04-29T11:50:42.647Z,215
2018-04-29T11:51:42.645Z,215
2018-04-29T11:52:42.659Z,215
2018-04-29T11:53:42.654Z,215
2018-04-29T11:54:42.667Z,215
2018-04-29T11:55:42.654Z,210
2018-04-29T11:56:42.653Z,210
2018-04-29T11:57:42.687Z,210
2018-04-29T11:58:42.146Z,210
2018-04-29T11:59:42.959Z,210
2018-04-29T12:00:42.152Z,210
2018-04-29T12:01:42.671Z,205
2018-04-29T12:02:42.433Z,205
2018-04-29T12:03:42.415Z,205
2018-04-29T12:04:42.401Z,205
2018-04-29T12:05:42.669Z,205
2018-04-29T12:06:42.153Z,205
2018-04-29T12:07:42.658Z,205
2018-04-29T12:08:42.662Z,205
2018-04-29T12:09:42.662Z,205
2018-04-29T12:10:42.664Z,205
2018-04-29T12:11:42.484Z,205
2018-04-29T12:12:42.669Z,205
2018-04-29T12:13:42.667Z,205
2018-04-29T12:14:42.158Z,205
2018-04-29T12:15:42.500Z,205
2018-04-29T12:16:42.798Z,205
2018-04-29T12:17:42.674Z,205
2018-04-29T12:18:42.670Z,205
2018-04-29T12:19:42.668Z,205
2018-04-29T12:20:42.423Z,205
2018-04-29T12:21:42.432Z,205
2018-04-29T12:22:42.672Z,200
2018-04-29T12:23:42.416Z,200
2018-04-29T12:24:43.044Z,200
2018-04-29T12:25:42.675Z,200
2018-04-29T12:26:42.682Z,200
2018-04-29T12:27:42.682Z,200
2018-04-29T12:28:42.680Z,200
2018-04-29T12:29:42.708Z,200
2018-04-29T12:30:42.684Z,195
2018-04-29T12:31:42.677Z,195
2018-04-29T12:32:42.431Z,195
2018-04-29T12:33:43.012Z,195
2018-04-29T12:34:42.179Z,195
2018-04-29T12:35:42.678Z,195
2018-04-29T12:36:42.681Z,195
2018-04-29T12:37:42.701Z,195
2018-04-29T12:38:42.692Z,195
2018-04-29T12:39:42.685Z,195
2018-04-29T12:40:42.689Z,195
2018-04-29T12:41:42.692Z,195
2018-04-29T12:42:42.695Z,195
2018-04-29T12:43:42.754Z,195
2018-04-29T12:44:42.685Z,195
2018-04-29T12:45:42.439Z,195
2018-04-29T12:46:42.289Z,195
2018-04-29T12:47:42.465Z,195
2018-04-29T12:48:42.699Z,195
2018-04-29T12:49:42.450Z,190
2018-04-29T12:50:42.701Z,190
2018-04-29T12:51:42.713Z,190
2018-04-29T12:52:42.697Z,190
2018-04-29T12:53:42.721Z,190
2018-04-29T12:54:42.447Z,190
2018-04-29T12:55:42.450Z,190
2018-04-29T12:56:42.191Z,190
2018-04-29T12:57:42.454Z,190
2018-04-29T12:58:42.702Z,190
2018-04-29T12:59:42.203Z,190
2018-04-29T13:00:42.447Z,190
2018-04-29T13:01:42.711Z,190
2018-04-29T13:02:42.703Z,190
2018-04-29T13:03:42.713Z,190
2018-04-29T13:04:42.709Z,190
2018-04-29T13:05:43.117Z,190
2018-04-29T13:06:42.462Z,190
2018-04-29T13:07:42.219Z,190
2018-04-29T13:08:42.477Z,190
2018-04-29T13:09:42.210Z,190
2018-04-29T13:10:42.214Z,190
2018-04-29T13:11:42.478Z,190
2018-04-29T13:12:42.716Z,190
2018-04-29T13:13:42.744Z,185
2018-04-29T13:14:42.470Z,185
2018-04-29T13:15:42.745Z,185
2018-04-29T13:16:42.217Z,185
2018-04-29T13:17:42.492Z,185
2018-04-29T13:18:42.476Z,185
2018-04-29T13:19:42.744Z,185
2018-04-29T13:20:42.486Z,185
2018-04-29T13:21:42.722Z,185
2018-04-29T13:22:42.729Z,190
2018-04-29T13:23:42.489Z,185
2018-04-29T13:24:42.730Z,185
2018-04-29T13:25:42.488Z,190
2018-04-29T13:26:42.495Z,185
2018-04-29T13:27:42.497Z,190
2018-04-29T13:28:41.977Z,185
2018-04-29T13:29:42.839Z,185
2018-04-29T13:30:42.735Z,190
2018-04-29T13:31:42.741Z,190
2018-04-29T13:32:42.482Z,190
2018-04-29T13:33:42.742Z,190
2018-04-29T13:34:42.749Z,190
2018-04-29T13:35:42.668Z,190
2018-04-29T13:36:42.744Z,190
2018-04-29T13:37:42.762Z,195
2018-04-29T13:38:42.770Z,185
2018-04-29T13:39:42.775Z,185
2018-04-29T13:40:42.747Z,190
2018-04-29T13:41:42.749Z,190
2018-04-29T13:42:42.762Z,185
2018-04-29T13:43:42.749Z,185
2018-04-29T13:44:42.749Z,185
2018-04-29T13:45:42.515Z,185
2018-04-29T13:46:42.528Z,185
2018-04-29T13:47:42.753Z,185
2018-04-29T13:48:42.756Z,185
2018-04-29T13:49:42.510Z,185
2018-04-29T13:50:42.253Z,185
2018-04-29T13:51:42.837Z,185
2018-04-29T13:52:42.762Z,185
2018-04-29T13:53:42.762Z,185
2018-04-29T13:54:42.277Z,190
2018-04-29T13:55:42.760Z,185
2018-04-29T13:56:42.605Z,190
2018-04-29T13:57:42.771Z,190
2018-04-29T13:58:42.871Z,190
2018-04-29T13:59:42.768Z,190
2018-04-29T14:00:42.265Z,190